Time;durP1;ratioP1;P1;durP2;ratioP2;P2;SDS_P1;SDS_P2;PMS_P1;PMS_P2;Temp;Humidity;BMP_temperature;BMP_pressure;BME280_temperature;BME280_humidity;BME280_pressure;Samples;Min_cycle;Max_cycle;Signal;HPM_P1;HPM_P2
2023/06/30 00:00:45;;;;;;;21.55;15.23;;;20.00;99.90;;;;;;4905026;29;20521;-80
2023/06/30 00:03:31;;;;;;;22.65;14.77;;;20.00;99.90;;;;;;4890385;29;20079;-80
2023/06/30 00:06:17;;;;;;;21.05;14.43;;;20.00;99.90;;;;;;4890395;29;20048;-80
2023/06/30 00:09:04;;;;;;;20.92;14.73;;;20.10;99.90;;;;;;4898769;29;20087;-80
2023/06/30 00:11:50;;;;;;;23.02;16.10;;;20.00;99.90;;;;;;4886072;29;20115;-80
2023/06/30 00:14:36;;;;;;;22.20;14.60;;;20.00;99.90;;;;;;4907054;29;20104;-81
2023/06/30 00:17:22;;;;;;;22.10;15.20;;;20.00;99.90;;;;;;4912774;29;20056;-81
2023/06/30 00:20:11;;;;;;;24.20;16.35;;;20.00;99.90;;;;;;4873122;29;20557;-81
2023/06/30 00:22:57;;;;;;;23.42;14.93;;;19.90;99.90;;;;;;4878144;29;20060;-81
2023/06/30 00:25:43;;;;;;;25.15;16.10;;;20.00;99.90;;;;;;4900281;29;20048;-81
2023/06/30 00:28:29;;;;;;;24.35;15.63;;;20.00;99.90;;;;;;4907590;29;20040;-80
2023/06/30 00:31:15;;;;;;;24.48;16.23;;;20.00;99.90;;;;;;4888427;29;20549;-81
2023/06/30 00:34:02;;;;;;;23.13;15.80;;;20.00;99.90;;;;;;4896617;29;20390;-81
2023/06/30 00:36:48;;;;;;;24.77;17.38;;;20.00;99.90;;;;;;4891328;29;20348;-81
2023/06/30 00:39:34;;;;;;;27.38;16.65;;;20.00;99.90;;;;;;4900316;29;20049;-80
2023/06/30 00:42:20;;;;;;;25.75;16.88;;;20.00;99.90;;;;;;4889412;29;20048;-79
2023/06/30 00:45:06;;;;;;;26.17;18.17;;;19.90;99.90;;;;;;4914023;29;20048;-80
2023/06/30 00:47:52;;;;;;;25.25;17.33;;;19.90;99.90;;;;;;4906149;29;20480;-80
2023/06/30 00:50:38;;;;;;;24.40;16.73;;;19.90;99.90;;;;;;4877539;29;20063;-80
2023/06/30 00:53:24;;;;;;;28.30;18.27;;;19.90;99.90;;;;;;4903683;29;20041;-80
2023/06/30 00:56:10;;;;;;;24.85;17.20;;;19.90;99.90;;;;;;4889791;29;20554;-81
2023/06/30 00:58:57;;;;;;;32.53;18.83;;;19.80;99.90;;;;;;4901148;29;20047;-81
2023/06/30 01:01:52;;;;;;;25.33;18.27;;;19.90;99.90;;;;;;4892160;29;20154;-81
2023/06/30 01:05:32;;;;;;;28.17;18.70;;;19.70;99.90;;;;;;4894312;29;20084;-81
2023/06/30 01:08:42;;;;;;;27.92;18.63;;;19.60;99.90;;;;;;4857999;29;20129;-82
2023/06/30 01:11:28;;;;;;;26.08;18.52;;;19.60;99.90;;;;;;4893335;29;20103;-80
2023/06/30 01:14:14;;;;;;;32.78;21.45;;;19.50;99.90;;;;;;4876206;29;20041;-80
2023/06/30 01:17:00;;;;;;;27.88;17.50;;;19.40;99.90;;;;;;4888141;29;20044;-80
2023/06/30 01:19:47;;;;;;;32.83;19.40;;;19.40;99.90;;;;;;4897952;29;20059;-81
2023/06/30 01:22:39;;;;;;;32.47;19.40;;;19.50;99.90;;;;;;4899182;29;20103;-81
2023/06/30 01:25:27;;;;;;;29.27;19.08;;;19.40;99.90;;;;;;4886627;29;20041;-81
2023/06/30 01:28:13;;;;;;;;;;;19.40;99.90;;;;;;4900799;29;20140;-81
2023/06/30 01:30:59;;;;;;;30.85;18.60;;;19.40;99.90;;;;;;4891683;29;19972;-81
2023/06/30 01:33:45;;;;;;;29.08;18.48;;;19.50;99.90;;;;;;4900710;29;20043;-81
2023/06/30 01:36:31;;;;;;;27.85;18.67;;;19.60;99.90;;;;;;4896687;29;20052;-81
2023/06/30 01:39:17;;;;;;;33.00;19.52;;;19.60;99.90;;;;;;4892304;29;20044;-81
2023/06/30 01:42:04;;;;;;;28.05;19.63;;;19.60;99.90;;;;;;4912344;29;20052;-81
2023/06/30 01:44:50;;;;;;;26.42;17.88;;;19.50;99.90;;;;;;4902616;29;20043;-81
2023/06/30 01:47:36;;;;;;;30.88;18.92;;;19.50;99.90;;;;;;4876846;29;20036;-81
2023/06/30 01:50:22;;;;;;;29.98;19.50;;;19.50;99.90;;;;;;4900421;29;20050;-81
2023/06/30 01:53:08;;;;;;;26.20;18.83;;;19.40;99.90;;;;;;4896269;29;20040;-81
2023/06/30 01:55:56;;;;;;;29.65;19.75;;;19.30;99.90;;;;;;4894225;29;20066;-81
2023/06/30 01:58:45;;;;;;;34.70;20.88;;;19.40;99.90;;;;;;4883174;29;20037;-80
2023/06/30 02:01:31;;;;;;;28.50;19.05;;;19.30;99.90;;;;;;4895896;29;20047;-79
2023/06/30 02:04:17;;;;;;;28.52;18.42;;;19.10;99.90;;;;;;4901617;29;20154;-79
2023/06/30 02:07:03;;;;;;;36.50;20.35;;;19.20;99.90;;;;;;4883661;29;20489;-79
2023/06/30 02:09:49;;;;;;;34.40;20.98;;;19.30;99.90;;;;;;4873410;29;20045;-79
2023/06/30 02:12:35;;;;;;;32.40;19.42;;;19.30;99.90;;;;;;4901465;29;20545;-80
2023/06/30 02:15:21;;;;;;;29.80;18.38;;;19.40;99.90;;;;;;4887809;29;20076;-80
2023/06/30 02:18:07;;;;;;;30.17;20.42;;;19.40;99.90;;;;;;4888778;29;20386;-80
2023/06/30 02:20:53;;;;;;;33.10;21.00;;;19.40;99.90;;;;;;4886740;29;20087;-79
2023/06/30 02:23:40;;;;;;;32.53;19.67;;;19.40;99.90;;;;;;4870666;29;20063;-79
2023/06/30 02:26:26;;;;;;;32.10;20.90;;;19.40;99.90;;;;;;4891347;29;20485;-80
2023/06/30 02:29:12;;;;;;;32.50;19.58;;;19.40;99.90;;;;;;4899980;29;20434;-80
2023/06/30 02:31:58;;;;;;;33.55;21.27;;;19.30;99.90;;;;;;4888152;29;20066;-79
2023/06/30 02:34:45;;;;;;;32.63;20.80;;;19.30;99.90;;;;;;4900622;29;20048;-80
2023/06/30 02:37:31;;;;;;;36.80;22.20;;;19.30;99.90;;;;;;4884282;29;20062;-79
2023/06/30 02:40:17;;;;;;;31.40;20.63;;;19.30;99.90;;;;;;4891730;29;20284;-79
2023/06/30 02:43:03;;;;;;;32.75;21.88;;;19.30;99.90;;;;;;4886214;29;20054;-79
2023/06/30 02:45:50;;;;;;;34.25;22.25;;;19.20;99.90;;;;;;4889427;29;20148;-79
2023/06/30 02:48:36;;;;;;;34.92;22.58;;;19.20;99.90;;;;;;4919110;29;20383;-79
2023/06/30 02:51:22;;;;;;;30.48;20.83;;;19.20;99.90;;;;;;4892006;29;20036;-79
2023/06/30 02:54:08;;;;;;;31.90;21.48;;;19.20;99.90;;;;;;4898671;29;20147;-79
2023/06/30 02:56:54;;;;;;;35.70;23.65;;;19.20;99.90;;;;;;4917345;29;20036;-79
2023/06/30 02:59:40;;;;;;;34.00;22.48;;;19.20;99.90;;;;;;4897049;29;20047;-79
2023/06/30 03:02:26;;;;;;;35.60;24.42;;;19.10;99.90;;;;;;4909094;29;20152;-79
2023/06/30 03:05:12;;;;;;;36.03;23.33;;;19.10;99.90;;;;;;4908210;29;20056;-79
2023/06/30 03:07:58;;;;;;;30.35;22.10;;;19.10;99.90;;;;;;4902412;29;20494;-79
2023/06/30 03:10:44;;;;;;;35.38;24.40;;;19.10;99.90;;;;;;4889324;29;20044;-79
2023/06/30 03:13:30;;;;;;;44.20;25.17;;;19.10;99.90;;;;;;4901045;29;20488;-79
2023/06/30 03:16:16;;;;;;;35.38;23.98;;;18.90;99.90;;;;;;4902799;29;20048;-79
2023/06/30 03:19:02;;;;;;;36.85;23.85;;;19.00;99.90;;;;;;4876539;29;20044;-80
2023/06/30 03:21:48;;;;;;;36.33;23.67;;;19.00;99.90;;;;;;4886922;29;20144;-80
2023/06/30 03:24:34;;;;;;;41.55;26.50;;;19.00;99.90;;;;;;4903775;29;20533;-80
2023/06/30 03:27:19;;;;;;;39.30;26.08;;;19.00;99.90;;;;;;4910041;29;20496;-79
2023/06/30 03:30:06;;;;;;;44.47;25.70;;;19.00;99.90;;;;;;4879919;29;20040;-79
2023/06/30 03:32:52;;;;;;;43.00;26.63;;;19.00;99.90;;;;;;4908811;29;20048;-79
2023/06/30 03:35:38;;;;;;;38.03;23.92;;;18.90;99.90;;;;;;4903469;29;20108;-79
2023/06/30 03:38:24;;;;;;;38.15;24.63;;;18.90;99.90;;;;;;4904032;29;20116;-79
2023/06/30 03:41:10;;;;;;;41.60;25.88;;;19.00;99.90;;;;;;4910687;29;20466;-79
2023/06/30 03:43:56;;;;;;;40.00;25.52;;;19.00;99.90;;;;;;4892446;29;20056;-79
2023/06/30 03:46:42;;;;;;;39.45;25.80;;;19.00;99.90;;;;;;4901119;29;20040;-78
2023/06/30 03:49:28;;;;;;;39.72;25.77;;;19.00;99.90;;;;;;4897896;29;20044;-79
2023/06/30 03:52:14;;;;;;;36.95;24.52;;;18.90;99.90;;;;;;4918504;29;20051;-79
2023/06/30 03:55:00;;;;;;;43.97;27.08;;;18.90;99.90;;;;;;4897808;29;20044;-79
2023/06/30 03:57:46;;;;;;;38.88;25.48;;;18.90;99.90;;;;;;4917131;29;20044;-78
2023/06/30 04:00:32;;;;;;;39.20;25.85;;;18.90;99.90;;;;;;4894200;29;20461;-79
2023/06/30 04:03:18;;;;;;;40.10;25.50;;;18.90;99.90;;;;;;4880222;29;20119;-78
2023/06/30 04:06:04;;;;;;;40.53;25.75;;;18.90;99.90;;;;;;4902152;29;20036;-78
2023/06/30 04:08:50;;;;;;;35.85;24.08;;;18.90;99.90;;;;;;4895265;29;20127;-80
2023/06/30 04:11:36;;;;;;;41.17;26.50;;;19.00;99.90;;;;;;4888932;29;20091;-81
2023/06/30 04:14:22;;;;;;;39.63;25.10;;;19.00;99.90;;;;;;4900553;29;20116;-79
2023/06/30 04:17:08;;;;;;;40.03;25.60;;;18.90;99.90;;;;;;4891614;29;20045;-79
2023/06/30 04:19:54;;;;;;;44.63;26.92;;;18.90;99.90;;;;;;4891507;29;20055;-79
2023/06/30 04:22:40;;;;;;;41.45;25.83;;;18.90;99.90;;;;;;4900293;29;20403;-79
2023/06/30 04:25:26;;;;;;;37.17;23.67;;;18.80;99.90;;;;;;4898961;29;20344;-79
2023/06/30 04:28:12;;;;;;;36.78;24.52;;;18.90;99.90;;;;;;4904883;29;20051;-79
2023/06/30 04:30:58;;;;;;;45.55;27.85;;;18.80;99.90;;;;;;4889418;29;20073;-79
2023/06/30 04:33:44;;;;;;;38.10;26.27;;;18.70;99.90;;;;;;4875827;29;20127;-78
2023/06/30 04:36:30;;;;;;;38.10;25.35;;;18.70;99.90;;;;;;4897998;29;20052;-80
2023/06/30 04:39:16;;;;;;;39.10;26.48;;;18.70;99.90;;;;;;4885184;29;20132;-80
2023/06/30 04:42:03;;;;;;;39.38;27.98;;;18.80;99.90;;;;;;4903664;29;20086;-79
2023/06/30 04:44:49;;;;;;;39.00;26.17;;;18.60;99.90;;;;;;4912318;29;20133;-79
2023/06/30 04:47:35;;;;;;;41.88;27.80;;;18.50;99.90;;;;;;4889875;29;20051;-79
2023/06/30 04:50:23;;;;;;;41.42;27.20;;;18.50;99.90;;;;;;4904010;29;20382;-79
2023/06/30 04:53:09;;;;;;;33.30;23.97;;;18.50;99.90;;;;;;4913116;29;20378;-79
2023/06/30 04:55:55;;;;;;;34.35;23.80;;;18.60;99.90;;;;;;4893504;29;20287;-80
2023/06/30 04:58:41;;;;;;;38.50;25.15;;;18.70;99.90;;;;;;4897364;29;20443;-80
2023/06/30 05:01:27;;;;;;;36.28;24.60;;;18.70;99.90;;;;;;4889794;29;20059;-80
2023/06/30 05:04:13;;;;;;;37.33;24.95;;;18.80;99.90;;;;;;4890868;29;20048;-80
2023/06/30 05:06:59;;;;;;;36.42;23.45;;;18.80;99.90;;;;;;4913246;29;20044;-80
2023/06/30 05:09:46;;;;;;;40.95;25.48;;;18.80;99.90;;;;;;4889660;29;20103;-80
2023/06/30 05:12:32;;;;;;;35.83;22.95;;;18.80;99.90;;;;;;4880433;29;20104;-80
2023/06/30 05:15:18;;;;;;;39.88;25.02;;;18.80;99.90;;;;;;4890897;29;20488;-80
2023/06/30 05:18:05;;;;;;;36.58;23.55;;;18.70;99.90;;;;;;4875502;29;20143;-79
2023/06/30 05:20:51;;;;;;;41.63;24.47;;;18.50;99.90;;;;;;4896686;29;20131;-79
2023/06/30 05:23:37;;;;;;;41.42;25.42;;;18.50;99.90;;;;;;4893671;29;20107;-79
2023/06/30 05:26:23;;;;;;;40.55;25.90;;;18.40;99.90;;;;;;4873390;29;20379;-79
2023/06/30 05:29:10;;;;;;;36.70;22.83;;;18.40;99.90;;;;;;4895643;29;20072;-80
2023/06/30 05:31:56;;;;;;;36.63;23.70;;;18.50;99.90;;;;;;4872755;29;20045;-79
2023/06/30 05:34:42;;;;;;;40.38;24.50;;;18.60;99.90;;;;;;4884994;29;20044;-79
2023/06/30 05:37:28;;;;;;;36.83;24.73;;;18.60;99.90;;;;;;4896577;29;20040;-80
2023/06/30 05:40:14;;;;;;;38.60;24.60;;;18.60;99.90;;;;;;4900091;29;20059;-79
2023/06/30 05:43:00;;;;;;;38.20;25.10;;;18.60;99.90;;;;;;4883685;29;20201;-80
2023/06/30 05:45:49;;;;;;;42.13;25.25;;;18.50;99.90;;;;;;4904157;29;20084;-80
2023/06/30 05:48:35;;;;;;;40.53;25.20;;;18.30;99.90;;;;;;4889788;29;20036;-80
2023/06/30 05:51:21;;;;;;;36.20;20.60;;;18.40;99.90;;;;;;4903688;29;20040;-79
2023/06/30 05:54:10;;;;;;;34.05;21.77;;;18.10;99.90;;;;;;4907219;29;20089;-82
2023/06/30 05:56:59;;;;;;;35.83;18.83;;;18.20;99.90;;;;;;4912267;29;20043;-81
2023/06/30 05:59:45;;;;;;;32.15;19.75;;;17.90;99.90;;;;;;4885847;29;20037;-81
2023/06/30 06:02:31;;;;;;;29.73;17.98;;;17.70;99.90;;;;;;4900496;29;20092;-81
2023/06/30 06:05:20;;;;;;;26.00;15.68;;;17.60;99.90;;;;;;4912096;29;20077;-81
2023/06/30 06:08:06;;;;;;;21.50;12.55;;;17.60;99.90;;;;;;4907327;29;20080;-81
2023/06/30 06:10:55;;;;;;;23.98;12.90;;;17.50;99.90;;;;;;4913473;29;20042;-81
2023/06/30 06:16:27;;;;;;;19.88;11.52;;;17.50;99.90;;;;;;5117719;23;20068;-82
2023/06/30 06:19:20;;;;;;;18.25;10.45;;;17.60;99.90;;;;;;4947836;28;20071;-83
2023/06/30 06:24:58;;;;;;;16.95;11.10;;;17.40;99.90;;;;;;5365596;23;20042;-80
2023/06/30 06:30:33;;;;;;;18.95;11.48;;;17.30;99.90;;;;;;5496453;23;20051;-82
2023/06/30 06:37:07;;;;;;;17.15;9.63;;;17.50;99.90;;;;;;4934415;28;20008;-81
2023/06/30 06:39:56;;;;;;;17.10;9.55;;;17.40;99.90;;;;;;4930096;28;20041;-81
2023/06/30 06:42:55;;;;;;;;;;;17.40;99.90;;;;;;5015132;23;20028;-80
2023/06/30 06:45:41;;;;;;;12.40;8.23;;;17.50;99.90;;;;;;4930789;29;19965;-81
2023/06/30 06:48:28;;;;;;;18.63;9.13;;;17.60;99.90;;;;;;4932663;28;20068;-81
2023/06/30 06:51:14;;;;;;;14.05;8.73;;;17.50;99.90;;;;;;4930800;29;20238;-81
2023/06/30 06:54:00;;;;;;;13.85;9.35;;;17.40;99.90;;;;;;4941376;29;20035;-81
2023/06/30 06:56:50;;;;;;;12.65;7.82;;;17.40;99.90;;;;;;4939284;29;20051;-81
2023/06/30 06:59:36;;;;;;;14.32;8.23;;;17.30;99.90;;;;;;4933342;29;20043;-81
2023/06/30 07:02:22;;;;;;;13.20;8.25;;;17.30;99.90;;;;;;4936666;29;20051;-82
2023/06/30 07:08:37;;;;;;;9.90;6.55;;;17.40;99.90;;;;;;4935877;29;20059;-82
2023/06/30 07:15:10;;;;;;;7.45;5.57;;;17.00;99.90;;;;;;4929234;29;20145;-81
2023/06/30 07:17:57;;;;;;;8.85;5.30;;;17.10;99.90;;;;;;4930180;29;20058;-81
2023/06/30 07:20:44;;;;;;;8.13;5.07;;;17.20;99.90;;;;;;4932290;29;20040;-81
2023/06/30 07:23:33;;;;;;;9.98;5.95;;;17.20;99.90;;;;;;4925218;29;20058;-81
2023/06/30 07:26:20;;;;;;;7.88;5.15;;;17.20;99.90;;;;;;4902112;29;20060;-81
2023/06/30 07:29:06;;;;;;;7.68;4.75;;;17.30;99.90;;;;;;4905736;29;20044;-81
2023/06/30 07:31:53;;;;;;;6.55;4.57;;;17.40;99.90;;;;;;4933710;29;20087;-81
2023/06/30 07:34:39;;;;;;;7.60;5.15;;;17.50;99.90;;;;;;4917145;29;20039;-81
2023/06/30 07:37:28;;;;;;;7.93;5.05;;;17.50;99.90;;;;;;4924309;29;20130;-80
2023/06/30 07:40:14;;;;;;;10.95;6.10;;;17.60;99.90;;;;;;4911402;29;20051;-80
2023/06/30 07:43:00;;;;;;;8.98;5.00;;;17.60;99.90;;;;;;4921755;29;20062;-81
2023/06/30 07:45:46;;;;;;;10.32;6.32;;;17.60;99.90;;;;;;4897102;29;20055;-81
2023/06/30 07:48:32;;;;;;;5.70;4.60;;;17.70;99.90;;;;;;4915258;29;20133;-81
2023/06/30 07:51:18;;;;;;;6.40;4.95;;;17.70;99.90;;;;;;4917896;29;20098;-81
2023/06/30 07:54:04;;;;;;;7.70;5.63;;;17.70;99.90;;;;;;4915090;29;20050;-81
2023/06/30 07:56:50;;;;;;;9.57;5.10;;;17.70;99.90;;;;;;4919759;29;20131;-80
2023/06/30 07:59:36;;;;;;;11.25;5.40;;;17.50;99.90;;;;;;4899710;29;20083;-80
2023/06/30 08:02:22;;;;;;;6.57;4.18;;;17.10;99.90;;;;;;4882918;29;20462;-80
2023/06/30 08:05:09;;;;;;;7.05;4.25;;;17.00;99.90;;;;;;4915804;29;20055;-80
2023/06/30 08:07:55;;;;;;;5.75;3.40;;;16.80;99.90;;;;;;4913258;29;20039;-80
2023/06/30 08:10:41;;;;;;;6.65;3.58;;;16.80;99.90;;;;;;4941318;29;20035;-80
2023/06/30 08:13:27;;;;;;;4.75;3.05;;;16.60;99.90;;;;;;4897356;29;20048;-80
2023/06/30 08:16:15;;;;;;;3.63;2.72;;;16.50;99.90;;;;;;4911343;29;20104;-79
2023/06/30 08:19:01;;;;;;;4.53;2.42;;;16.60;99.90;;;;;;4924106;29;20187;-79
2023/06/30 08:21:47;;;;;;;4.95;3.05;;;16.60;99.90;;;;;;4902605;29;20173;-79
2023/06/30 08:24:33;;;;;;;4.53;2.88;;;16.60;99.90;;;;;;4920084;29;20054;-79
2023/06/30 08:27:19;;;;;;;4.93;3.30;;;16.50;99.90;;;;;;4940605;29;20130;-79
2023/06/30 08:30:06;;;;;;;6.30;3.42;;;16.60;99.90;;;;;;4933766;29;20129;-79
2023/06/30 08:32:54;;;;;;;5.07;3.47;;;16.70;99.90;;;;;;4931161;29;20089;-79
2023/06/30 08:35:40;;;;;;;7.07;3.97;;;16.70;99.90;;;;;;4894614;29;20047;-79
2023/06/30 08:38:26;;;;;;;6.75;4.13;;;16.70;99.90;;;;;;4899678;29;20126;-79
2023/06/30 08:41:12;;;;;;;7.03;4.15;;;16.80;99.90;;;;;;4925584;29;20043;-79
2023/06/30 08:43:59;;;;;;;8.43;4.80;;;16.80;99.90;;;;;;4916956;28;20508;-79
2023/06/30 08:46:45;;;;;;;6.15;4.65;;;16.90;99.90;;;;;;4929111;29;20050;-79
2023/06/30 08:49:31;;;;;;;7.47;4.93;;;17.00;99.90;;;;;;4884855;29;20428;-79
2023/06/30 08:52:17;;;;;;;8.70;5.80;;;17.00;99.90;;;;;;4915124;29;20046;-79
2023/06/30 08:55:04;;;;;;;8.27;6.53;;;17.00;99.90;;;;;;4912107;29;20054;-79
2023/06/30 08:57:50;;;;;;;9.63;7.20;;;17.00;99.90;;;;;;4918227;29;20126;-79
2023/06/30 09:00:37;;;;;;;11.40;6.90;;;17.00;99.90;;;;;;4903764;29;20058;-79
2023/06/30 09:03:22;;;;;;;8.48;5.85;;;17.10;99.90;;;;;;4891565;29;20082;-79
2023/06/30 09:06:09;;;;;;;7.72;5.90;;;17.00;99.90;;;;;;4908810;29;20044;-79
2023/06/30 09:09:04;;;;;;;10.48;6.60;;;17.10;99.90;;;;;;4912437;29;20047;-79
2023/06/30 09:11:51;;;;;;;6.90;5.78;;;17.00;99.90;;;;;;4945250;28;20071;-79
2023/06/30 09:14:41;;;;;;;10.52;6.18;;;17.00;99.90;;;;;;4923601;29;20091;-79
2023/06/30 09:17:27;;;;;;;10.32;6.90;;;17.10;99.90;;;;;;4946302;29;20067;-79
2023/06/30 09:20:13;;;;;;;8.07;6.93;;;17.20;99.90;;;;;;4921673;29;20109;-79
2023/06/30 09:22:59;;;;;;;13.25;8.07;;;17.10;99.90;;;;;;4915375;29;20116;-79
2023/06/30 09:25:46;;;;;;;9.63;7.13;;;17.20;99.90;;;;;;4954379;29;20338;-79
2023/06/30 09:28:35;;;;;;;10.57;7.50;;;17.20;99.90;;;;;;4938436;29;20042;-79
2023/06/30 09:31:29;;;;;;;12.68;8.50;;;17.30;99.90;;;;;;4935919;28;20043;-79
2023/06/30 09:34:15;;;;;;;8.13;6.85;;;17.30;99.90;;;;;;4937444;29;20040;-79
2023/06/30 09:37:01;;;;;;;8.82;6.68;;;17.40;99.90;;;;;;4946075;29;20048;-79
2023/06/30 09:39:51;;;;;;;9.40;6.78;;;17.40;99.90;;;;;;4942263;29;20059;-79
2023/06/30 09:42:37;;;;;;;12.68;8.05;;;17.40;99.90;;;;;;4901310;29;20459;-79
2023/06/30 09:45:23;;;;;;;9.30;7.22;;;17.30;99.90;;;;;;4934648;29;20171;-79
2023/06/30 09:48:10;;;;;;;11.13;8.13;;;17.40;99.90;;;;;;4930256;29;20078;-79
2023/06/30 09:50:58;;;;;;;12.70;9.80;;;17.30;99.90;;;;;;4907052;29;20490;-79
2023/06/30 09:53:44;;;;;;;12.75;10.25;;;17.30;99.90;;;;;;4917214;29;20102;-79
2023/06/30 09:56:30;;;;;;;16.08;10.70;;;17.40;99.90;;;;;;4933441;29;20052;-79
2023/06/30 09:59:17;;;;;;;12.23;9.10;;;17.40;99.90;;;;;;4928473;29;20063;-78
2023/06/30 10:02:03;;;;;;;11.35;8.98;;;17.40;99.90;;;;;;4895378;29;20070;-79
2023/06/30 10:04:49;;;;;;;11.70;9.48;;;17.50;99.90;;;;;;4883253;29;20173;-79
2023/06/30 10:07:36;;;;;;;10.60;8.07;;;17.50;99.90;;;;;;4901331;29;20058;-79
2023/06/30 10:10:22;;;;;;;12.27;8.30;;;17.40;99.90;;;;;;4905236;29;20040;-79
2023/06/30 10:13:10;;;;;;;9.52;6.70;;;17.40;99.90;;;;;;4907870;29;20161;-79
2023/06/30 10:15:56;;;;;;;10.75;7.32;;;17.30;99.90;;;;;;4912083;29;20451;-79
2023/06/30 10:18:45;;;;;;;9.10;6.35;;;17.30;99.90;;;;;;4910578;29;20134;-79
2023/06/30 10:21:32;;;;;;;7.85;6.10;;;17.40;99.90;;;;;;4929054;29;20476;-79
2023/06/30 10:24:23;;;;;;;9.10;5.93;;;17.40;99.90;;;;;;4896952;29;20150;-79
2023/06/30 10:27:10;;;;;;;7.05;5.72;;;17.40;99.90;;;;;;4912670;29;20037;-79
2023/06/30 10:29:56;;;;;;;8.95;5.88;;;17.50;99.90;;;;;;4931620;29;20464;-80
2023/06/30 10:32:42;;;;;;;8.77;6.25;;;17.60;99.90;;;;;;4921291;29;20103;-80
2023/06/30 10:35:28;;;;;;;7.88;5.68;;;17.70;99.90;;;;;;4906606;29;20051;-80
2023/06/30 10:38:14;;;;;;;6.82;4.70;;;17.70;99.90;;;;;;4925457;29;20036;-80
2023/06/30 10:41:13;;;;;;;8.25;4.82;;;17.80;99.90;;;;;;4903545;29;20058;-80
2023/06/30 10:44:09;;;;;;;5.65;4.53;;;17.90;99.90;;;;;;4926948;29;20079;-81
2023/06/30 10:46:58;;;;;;;5.85;4.70;;;18.00;99.90;;;;;;4902683;29;20469;-81
2023/06/30 10:49:44;;;;;;;5.75;4.35;;;18.20;99.90;;;;;;4922232;29;20442;-81
2023/06/30 10:52:31;;;;;;;4.70;3.80;;;18.20;99.90;;;;;;4896566;29;20048;-81
2023/06/30 10:55:21;;;;;;;5.65;4.13;;;18.10;99.90;;;;;;4893696;29;20063;-80
2023/06/30 10:58:07;;;;;;;7.15;4.65;;;18.10;99.90;;;;;;4935313;29;20075;-81
2023/06/30 11:01:04;;;;;;;4.90;3.88;;;18.20;99.90;;;;;;4917573;29;20451;-81
2023/06/30 11:03:56;;;;;;;5.07;3.72;;;18.20;99.90;;;;;;4918951;29;20056;-80
2023/06/30 11:06:45;;;;;;;6.00;3.80;;;18.20;99.90;;;;;;4898574;29;20139;-80
2023/06/30 11:09:47;;;;;;;4.75;3.80;;;18.20;99.90;;;;;;4894600;29;20036;-80
2023/06/30 11:12:52;;;;;;;6.40;3.63;;;18.20;99.90;;;;;;4914650;29;20040;-80
2023/06/30 11:15:47;;;;;;;7.25;2.88;;;18.20;99.90;;;;;;4872888;29;20166;-80
2023/06/30 11:18:33;;;;;;;5.65;2.58;;;18.00;99.90;;;;;;4901543;29;20144;-80
2023/06/30 11:21:19;;;;;;;4.40;2.70;;;17.90;99.90;;;;;;4894318;29;20044;-80
2023/06/30 11:24:14;;;;;;;5.97;2.53;;;17.90;99.90;;;;;;4898161;29;20076;-79
2023/06/30 11:27:00;;;;;;;4.55;2.47;;;18.00;99.90;;;;;;4893331;29;20040;-80
2023/06/30 11:29:49;;;;;;;6.15;3.00;;;18.10;99.90;;;;;;4913424;29;20036;-80
2023/06/30 11:32:38;;;;;;;3.67;2.78;;;18.10;99.90;;;;;;4895679;29;20418;-79
2023/06/30 11:35:24;;;;;;;4.93;2.50;;;18.20;99.90;;;;;;4918522;29;20451;-79
2023/06/30 11:38:10;;;;;;;6.35;2.90;;;18.30;99.90;;;;;;4873207;29;20128;-80
2023/06/30 11:41:00;;;;;;;4.85;2.90;;;18.30;99.90;;;;;;4895567;29;20040;-80
2023/06/30 11:43:58;;;;;;;7.97;4.00;;;18.30;99.90;;;;;;4885658;29;20098;-80
2023/06/30 11:46:44;;;;;;;;;;;18.30;99.90;;;;;;4899383;29;20470;-80
2023/06/30 11:49:35;;;;;;;5.68;4.00;;;18.30;99.90;;;;;;4891113;29;19919;-80
2023/06/30 11:52:24;;;;;;;6.28;4.07;;;18.30;99.90;;;;;;4877833;29;20128;-80
2023/06/30 11:55:11;;;;;;;6.18;4.28;;;18.40;99.90;;;;;;4893547;29;20044;-80
2023/06/30 11:57:57;;;;;;;8.07;4.57;;;18.50;99.90;;;;;;4901308;29;20044;-79
2023/06/30 12:00:45;;;;;;;7.78;4.53;;;18.40;99.90;;;;;;4875385;29;20143;-79
2023/06/30 12:03:31;;;;;;;7.45;4.72;;;18.50;99.90;;;;;;4892887;29;20485;-79
2023/06/30 12:06:20;;;;;;;7.32;4.93;;;18.50;99.90;;;;;;4905662;29;20058;-79
2023/06/30 12:09:06;;;;;;;8.07;5.40;;;18.50;99.90;;;;;;4916385;29;20039;-79
2023/06/30 12:11:52;;;;;;;8.13;5.10;;;18.50;99.90;;;;;;4909614;29;20394;-79
2023/06/30 12:14:41;;;;;;;8.88;5.07;;;18.60;99.90;;;;;;4900457;29;20183;-79
2023/06/30 12:17:28;;;;;;;7.15;5.07;;;18.60;99.90;;;;;;4893626;29;20048;-78
2023/06/30 12:20:16;;;;;;;7.05;4.18;;;18.60;99.90;;;;;;4921778;29;20355;-78
2023/06/30 12:23:03;;;;;;;6.85;4.20;;;18.40;99.90;;;;;;4913202;29;20071;-78
2023/06/30 12:25:49;;;;;;;8.63;4.05;;;18.50;99.90;;;;;;4893718;29;20054;-79
2023/06/30 12:28:35;;;;;;;7.47;4.25;;;18.60;99.90;;;;;;4916776;29;20166;-78
2023/06/30 12:31:24;;;;;;;5.45;4.45;;;18.60;99.90;;;;;;4906595;29;20374;-78
2023/06/30 12:34:12;;;;;;;8.32;4.35;;;18.60;99.90;;;;;;4926888;29;20093;-79
2023/06/30 12:36:59;;;;;;;5.53;4.47;;;18.60;99.90;;;;;;4908294;29;20723;-81
2023/06/30 12:39:45;;;;;;;6.97;4.63;;;18.70;99.90;;;;;;4915632;29;21732;-78
2023/06/30 12:42:31;;;;;;;6.10;4.22;;;18.70;99.90;;;;;;4898443;29;20083;-78
2023/06/30 12:45:17;;;;;;;8.27;4.85;;;18.70;99.90;;;;;;4881228;29;20047;-80
2023/06/30 12:48:03;;;;;;;6.53;3.88;;;18.80;99.90;;;;;;4934891;29;20081;-78
2023/06/30 12:50:49;;;;;;;9.75;4.22;;;18.70;99.90;;;;;;4907781;29;20451;-79
2023/06/30 12:53:35;;;;;;;5.38;3.83;;;18.90;99.90;;;;;;4916720;29;20347;-79
2023/06/30 12:56:21;;;;;;;5.75;3.50;;;18.90;99.90;;;;;;4925304;29;20046;-79
2023/06/30 12:59:07;;;;;;;6.57;3.90;;;19.00;99.90;;;;;;4906661;29;20469;-79
2023/06/30 13:01:53;;;;;;;6.07;3.72;;;19.10;99.90;;;;;;4924314;29;20261;-79
2023/06/30 13:04:40;;;;;;;6.32;4.10;;;19.10;99.90;;;;;;4909389;29;20115;-79
2023/06/30 13:07:26;;;;;;;6.78;3.75;;;19.20;99.90;;;;;;4938206;29;20126;-79
2023/06/30 13:10:13;;;;;;;5.25;3.95;;;19.30;99.90;;;;;;4907843;29;20055;-80
2023/06/30 13:12:59;;;;;;;6.50;3.93;;;19.30;99.90;;;;;;4895460;29;20094;-78
2023/06/30 13:15:45;;;;;;;5.22;3.58;;;19.30;99.90;;;;;;4936056;29;20075;-80
2023/06/30 13:18:31;;;;;;;6.88;4.10;;;19.20;99.90;;;;;;4920290;29;20079;-80
2023/06/30 13:21:18;;;;;;;7.25;4.13;;;19.20;99.90;;;;;;4914419;29;20473;-78
2023/06/30 13:24:04;;;;;;;5.85;4.38;;;19.10;99.90;;;;;;4931259;29;20552;-81
2023/06/30 13:26:50;;;;;;;6.47;4.00;;;19.10;99.90;;;;;;4918401;29;20818;-81
2023/06/30 13:29:42;;;;;;;6.45;4.53;;;19.10;99.90;;;;;;4918548;29;20502;-80
2023/06/30 13:32:28;;;;;;;6.43;4.65;;;19.10;99.90;;;;;;4920432;29;20036;-81
2023/06/30 13:35:14;;;;;;;8.93;4.78;;;19.10;99.90;;;;;;4926033;29;20047;-81
2023/06/30 13:38:00;;;;;;;10.13;5.55;;;19.10;99.90;;;;;;4923420;29;20496;-81
2023/06/30 13:40:47;;;;;;;9.98;5.60;;;19.00;99.90;;;;;;4928055;29;20071;-80
2023/06/30 13:43:34;;;;;;;9.07;5.65;;;18.80;99.90;;;;;;4928041;29;20049;-80
2023/06/30 13:46:20;;;;;;;10.20;6.72;;;18.60;99.90;;;;;;4929749;29;20073;-80
2023/06/30 13:49:06;;;;;;;10.18;7.10;;;18.40;99.90;;;;;;4938780;29;20792;-80
2023/06/30 13:51:52;;;;;;;11.38;7.13;;;18.40;99.90;;;;;;4900154;29;20116;-80
2023/06/30 13:54:40;;;;;;;10.23;7.70;;;18.30;99.90;;;;;;4911262;29;20081;-80
2023/06/30 13:57:26;;;;;;;8.95;6.50;;;18.30;99.90;;;;;;4914152;29;20382;-80
2023/06/30 14:00:12;;;;;;;9.32;6.07;;;18.40;99.90;;;;;;4902020;29;20044;-80
2023/06/30 14:02:58;;;;;;;7.78;5.43;;;18.50;99.90;;;;;;4939330;29;20549;-80
2023/06/30 14:05:47;;;;;;;8.52;5.50;;;18.50;99.90;;;;;;4904309;29;20055;-80
2023/06/30 14:08:34;;;;;;;12.35;6.85;;;18.50;99.90;;;;;;4924840;29;20566;-80
2023/06/30 14:11:21;;;;;;;7.55;5.03;;;18.50;99.90;;;;;;4930319;29;20048;-81
2023/06/30 14:14:06;;;;;;;8.82;5.82;;;18.60;99.90;;;;;;4884626;29;20406;-80
2023/06/30 14:16:52;;;;;;;6.50;5.57;;;18.60;99.90;;;;;;4895570;29;20070;-81
2023/06/30 14:19:38;;;;;;;7.40;5.68;;;18.50;99.90;;;;;;4930895;29;20054;-81
2023/06/30 14:22:24;;;;;;;8.13;6.10;;;18.60;99.90;;;;;;4890576;29;20039;-81
2023/06/30 14:25:23;;;;;;;8.25;6.20;;;18.60;99.90;;;;;;4906081;29;20044;-81
2023/06/30 14:28:09;;;;;;;8.30;6.18;;;18.70;99.90;;;;;;4930624;29;20115;-81
2023/06/30 14:30:55;;;;;;;6.72;5.82;;;18.70;99.90;;;;;;4920615;29;20549;-79
2023/06/30 14:33:41;;;;;;;6.82;5.88;;;19.00;99.90;;;;;;4894922;29;20127;-79
2023/06/30 14:36:27;;;;;;;7.22;4.25;;;19.30;99.90;;;;;;4921835;29;20048;-80
2023/06/30 14:39:13;;;;;;;6.85;3.40;;;19.50;99.90;;;;;;4920103;29;20473;-80